Burns, Wyoming
Current Conditions -  °F | °C
As of 12:15 PM on Thursday 23 Oct 2014 (Local Time) from K82V Reporting Station
Clear Clear  
Wind Chill: 64°   Ceiling: Unl
Heat Index: 64°   Visibility: 10mi
Dew Point: 39°   Wind: 12mph
Humidity: 40%   Direction: 230°SW
Pressure: 30.13"   Gusts: 20mph
Location:  41.19°N, 104.36°W
Report Text: K82V 231815Z AUTO 23010G17KT 10SM CLR 18/04 A3013 RMK AO2
Loading
Personal Weather Stations






























Interactive Weather Map
Tropical Storm Tracking
New forecast layout! Learn more

10-Day Weather Forecast

Advertisements
Track Severe Weather on mobile